Glen Ferris, West Virginia
Current Conditions -  °F | °C
As of 4:51 AM on Tuesday 21 Oct 2014 (Local Time) from KBKW Reporting Station
Moderate Rain Moderate Rain  
Wind Chill: 48°   Ceiling: 1400
Heat Index: 48°   Visibility: 4mi
Dew Point: 45°   Wind: 0mph
Humidity: 89%   Direction: NA
Pressure: 29.94"   Gusts: NA
Location:  38.15°N, 81.21°W
Report Text: KBKW 210851Z AUTO 00000KT 4SM RA BR OVC014 09/07 A2994 RMK AO2 RAB03 SLP132 P0001 60001 T00890072 56002 TSNO
Loading
Personal Weather Stations






























Interactive Weather Map
Tropical Storm Tracking
New forecast layout! Learn more

10-Day Weather Forecast

Advertisements
Track Severe Weather on mobile